sensor_id;sensor_type;location;lat;lon;timestamp;P1;durP1;ratioP1;P2;durP2;ratioP2
68072;SDS011;54862;51.502;7.446;2023-03-01T00:01:22;14.63;;;7.38;;
68072;SDS011;54862;51.502;7.446;2023-03-01T00:03:48;15.15;;;7.15;;
68072;SDS011;54862;51.502;7.446;2023-03-01T00:06:14;13.55;;;6.88;;
68072;SDS011;54862;51.502;7.446;2023-03-01T00:08:40;15.10;;;7.75;;
68072;SDS011;54862;51.502;7.446;2023-03-01T00:11:13;15.18;;;7.65;;
68072;SDS011;54862;51.502;7.446;2023-03-01T00:13:40;13.98;;;6.82;;
68072;SDS011;54862;51.502;7.446;2023-03-01T00:16:11;14.70;;;7.65;;
68072;SDS011;54862;51.502;7.446;2023-03-01T00:18:38;14.18;;;7.05;;
68072;SDS011;54862;51.502;7.446;2023-03-01T00:21:03;12.93;;;6.68;;
68072;SDS011;54862;51.502;7.446;2023-03-01T00:23:30;12.20;;;7.18;;
68072;SDS011;54862;51.502;7.446;2023-03-01T00:25:56;13.05;;;6.95;;
68072;SDS011;54862;51.502;7.446;2023-03-01T00:28:22;13.35;;;7.47;;
68072;SDS011;54862;51.502;7.446;2023-03-01T00:30:48;15.13;;;7.80;;
68072;SDS011;54862;51.502;7.446;2023-03-01T00:33:14;15.00;;;7.20;;
68072;SDS011;54862;51.502;7.446;2023-03-01T00:35:40;11.77;;;6.90;;
68072;SDS011;54862;51.502;7.446;2023-03-01T00:38:06;13.45;;;7.20;;
68072;SDS011;54862;51.502;7.446;2023-03-01T00:40:33;12.75;;;6.25;;
68072;SDS011;54862;51.502;7.446;2023-03-01T00:43:00;12.32;;;6.25;;
68072;SDS011;54862;51.502;7.446;2023-03-01T00:45:26;12.57;;;6.80;;
68072;SDS011;54862;51.502;7.446;2023-03-01T00:47:52;11.55;;;6.97;;
68072;SDS011;54862;51.502;7.446;2023-03-01T00:50:19;15.10;;;7.40;;
68072;SDS011;54862;51.502;7.446;2023-03-01T00:52:45;13.15;;;7.28;;
68072;SDS011;54862;51.502;7.446;2023-03-01T00:55:11;13.98;;;7.10;;
68072;SDS011;54862;51.502;7.446;2023-03-01T00:57:37;13.95;;;8.02;;
68072;SDS011;54862;51.502;7.446;2023-03-01T01:00:04;13.60;;;7.03;;
68072;SDS011;54862;51.502;7.446;2023-03-01T01:02:34;12.05;;;6.72;;
68072;SDS011;54862;51.502;7.446;2023-03-01T01:05:00;14.43;;;7.28;;
68072;SDS011;54862;51.502;7.446;2023-03-01T01:07:26;14.23;;;7.50;;
68072;SDS011;54862;51.502;7.446;2023-03-01T01:09:52;13.18;;;6.72;;
68072;SDS011;54862;51.502;7.446;2023-03-01T01:12:18;12.57;;;7.32;;
68072;SDS011;54862;51.502;7.446;2023-03-01T01:14:44;12.27;;;6.95;;
68072;SDS011;54862;51.502;7.446;2023-03-01T01:17:11;11.80;;;7.00;;
68072;SDS011;54862;51.502;7.446;2023-03-01T01:19:37;13.43;;;7.82;;
68072;SDS011;54862;51.502;7.446;2023-03-01T01:22:03;12.77;;;7.05;;
68072;SDS011;54862;51.502;7.446;2023-03-01T01:24:29;14.38;;;7.18;;
68072;SDS011;54862;51.502;7.446;2023-03-01T01:26:55;14.73;;;7.00;;
68072;SDS011;54862;51.502;7.446;2023-03-01T01:29:21;13.20;;;6.93;;
68072;SDS011;54862;51.502;7.446;2023-03-01T01:31:47;12.65;;;6.95;;
68072;SDS011;54862;51.502;7.446;2023-03-01T01:34:14;12.38;;;6.60;;
68072;SDS011;54862;51.502;7.446;2023-03-01T01:36:41;15.35;;;6.95;;
68072;SDS011;54862;51.502;7.446;2023-03-01T01:39:07;15.60;;;7.20;;
68072;SDS011;54862;51.502;7.446;2023-03-01T01:41:38;16.23;;;8.10;;
68072;SDS011;54862;51.502;7.446;2023-03-01T01:44:47;13.32;;;7.40;;
68072;SDS011;54862;51.502;7.446;2023-03-01T01:46:57;13.52;;;7.40;;
68072;SDS011;54862;51.502;7.446;2023-03-01T01:49:26;14.90;;;7.57;;
68072;SDS011;54862;51.502;7.446;2023-03-01T01:51:57;13.32;;;7.22;;
68072;SDS011;54862;51.502;7.446;2023-03-01T01:56:56;16.25;;;7.07;;
68072;SDS011;54862;51.502;7.446;2023-03-01T01:59:23;13.43;;;6.80;;
68072;SDS011;54862;51.502;7.446;2023-03-01T02:01:51;14.40;;;7.13;;
68072;SDS011;54862;51.502;7.446;2023-03-01T02:04:17;12.93;;;7.20;;
68072;SDS011;54862;51.502;7.446;2023-03-01T02:06:48;12.77;;;6.93;;
68072;SDS011;54862;51.502;7.446;2023-03-01T02:09:17;15.80;;;7.07;;
68072;SDS011;54862;51.502;7.446;2023-03-01T02:11:44;16.25;;;7.03;;
68072;SDS011;54862;51.502;7.446;2023-03-01T02:14:10;13.57;;;6.80;;
68072;SDS011;54862;51.502;7.446;2023-03-01T02:16:36;15.63;;;7.25;;
68072;SDS011;54862;51.502;7.446;2023-03-01T02:19:02;13.55;;;6.65;;
68072;SDS011;54862;51.502;7.446;2023-03-01T02:21:42;13.55;;;6.97;;
68072;SDS011;54862;51.502;7.446;2023-03-01T02:26:45;14.88;;;7.32;;
68072;SDS011;54862;51.502;7.446;2023-03-01T02:29:12;14.23;;;7.07;;
68072;SDS011;54862;51.502;7.446;2023-03-01T02:31:38;14.50;;;7.78;;
68072;SDS011;54862;51.502;7.446;2023-03-01T02:34:08;12.82;;;7.22;;
68072;SDS011;54862;51.502;7.446;2023-03-01T02:36:36;18.75;;;8.05;;
68072;SDS011;54862;51.502;7.446;2023-03-01T02:39:03;15.07;;;7.80;;
68072;SDS011;54862;51.502;7.446;2023-03-01T02:41:31;15.05;;;7.00;;
68072;SDS011;54862;51.502;7.446;2023-03-01T02:43:59;16.00;;;7.45;;
68072;SDS011;54862;51.502;7.446;2023-03-01T02:46:25;12.93;;;7.68;;
68072;SDS011;54862;51.502;7.446;2023-03-01T02:48:52;15.93;;;7.65;;
68072;SDS011;54862;51.502;7.446;2023-03-01T02:53:54;13.40;;;6.50;;
68072;SDS011;54862;51.502;7.446;2023-03-01T02:56:20;13.75;;;7.07;;
68072;SDS011;54862;51.502;7.446;2023-03-01T02:58:46;17.10;;;7.70;;
68072;SDS011;54862;51.502;7.446;2023-03-01T03:01:16;12.32;;;6.82;;
68072;SDS011;54862;51.502;7.446;2023-03-01T03:03:42;14.68;;;7.32;;
68072;SDS011;54862;51.502;7.446;2023-03-01T03:06:08;13.50;;;6.78;;
68072;SDS011;54862;51.502;7.446;2023-03-01T03:08:34;12.88;;;6.68;;
68072;SDS011;54862;51.502;7.446;2023-03-01T03:11:00;11.98;;;7.10;;
68072;SDS011;54862;51.502;7.446;2023-03-01T03:13:26;13.98;;;6.40;;
68072;SDS011;54862;51.502;7.446;2023-03-01T03:15:54;12.95;;;7.05;;
68072;SDS011;54862;51.502;7.446;2023-03-01T03:18:20;13.32;;;7.25;;
68072;SDS011;54862;51.502;7.446;2023-03-01T03:20:46;13.65;;;8.35;;
68072;SDS011;54862;51.502;7.446;2023-03-01T03:23:12;13.57;;;7.68;;
68072;SDS011;54862;51.502;7.446;2023-03-01T03:25:38;13.90;;;7.88;;
68072;SDS011;54862;51.502;7.446;2023-03-01T03:28:05;15.00;;;7.45;;
68072;SDS011;54862;51.502;7.446;2023-03-01T03:30:35;15.23;;;8.00;;
68072;SDS011;54862;51.502;7.446;2023-03-01T03:33:03;11.77;;;6.43;;
68072;SDS011;54862;51.502;7.446;2023-03-01T03:35:31;12.65;;;6.93;;
68072;SDS011;54862;51.502;7.446;2023-03-01T03:37:58;17.10;;;7.88;;
68072;SDS011;54862;51.502;7.446;2023-03-01T03:40:28;14.63;;;7.65;;
68072;SDS011;54862;51.502;7.446;2023-03-01T03:42:54;12.88;;;7.60;;
68072;SDS011;54862;51.502;7.446;2023-03-01T03:45:20;13.00;;;7.30;;
68072;SDS011;54862;51.502;7.446;2023-03-01T03:47:47;16.50;;;7.82;;
68072;SDS011;54862;51.502;7.446;2023-03-01T03:50:14;13.88;;;7.78;;
68072;SDS011;54862;51.502;7.446;2023-03-01T03:52:40;16.33;;;8.57;;
68072;SDS011;54862;51.502;7.446;2023-03-01T03:55:07;14.25;;;6.97;;
68072;SDS011;54862;51.502;7.446;2023-03-01T03:57:39;16.27;;;8.38;;
68072;SDS011;54862;51.502;7.446;2023-03-01T04:00:06;15.50;;;7.82;;
68072;SDS011;54862;51.502;7.446;2023-03-01T04:02:40;15.40;;;8.55;;
68072;SDS011;54862;51.502;7.446;2023-03-01T04:05:07;15.73;;;8.45;;
68072;SDS011;54862;51.502;7.446;2023-03-01T04:07:34;18.42;;;8.27;;
68072;SDS011;54862;51.502;7.446;2023-03-01T04:10:00;13.93;;;8.23;;
68072;SDS011;54862;51.502;7.446;2023-03-01T04:12:26;16.65;;;7.60;;
68072;SDS011;54862;51.502;7.446;2023-03-01T04:14:52;13.68;;;7.07;;
68072;SDS011;54862;51.502;7.446;2023-03-01T04:17:18;15.15;;;9.13;;
68072;SDS011;54862;51.502;7.446;2023-03-01T04:19:44;15.23;;;8.57;;
68072;SDS011;54862;51.502;7.446;2023-03-01T04:22:13;15.80;;;8.82;;
68072;SDS011;54862;51.502;7.446;2023-03-01T04:24:42;14.85;;;8.02;;
68072;SDS011;54862;51.502;7.446;2023-03-01T04:27:08;16.63;;;8.43;;
68072;SDS011;54862;51.502;7.446;2023-03-01T04:29:34;15.45;;;7.63;;
68072;SDS011;54862;51.502;7.446;2023-03-01T04:32:00;14.45;;;7.53;;
68072;SDS011;54862;51.502;7.446;2023-03-01T04:34:27;13.10;;;7.22;;
68072;SDS011;54862;51.502;7.446;2023-03-01T04:36:53;14.60;;;7.75;;
68072;SDS011;54862;51.502;7.446;2023-03-01T04:39:19;13.10;;;6.85;;
68072;SDS011;54862;51.502;7.446;2023-03-01T04:41:45;15.70;;;7.53;;
68072;SDS011;54862;51.502;7.446;2023-03-01T04:44:11;15.45;;;7.75;;
68072;SDS011;54862;51.502;7.446;2023-03-01T04:46:37;14.60;;;7.82;;
68072;SDS011;54862;51.502;7.446;2023-03-01T04:49:03;13.20;;;6.78;;
68072;SDS011;54862;51.502;7.446;2023-03-01T04:51:30;15.82;;;7.43;;
68072;SDS011;54862;51.502;7.446;2023-03-01T04:53:57;16.05;;;8.13;;
68072;SDS011;54862;51.502;7.446;2023-03-01T04:56:23;15.65;;;8.10;;
68072;SDS011;54862;51.502;7.446;2023-03-01T04:58:49;14.00;;;7.53;;
68072;SDS011;54862;51.502;7.446;2023-03-01T05:01:17;15.93;;;8.02;;
68072;SDS011;54862;51.502;7.446;2023-03-01T05:03:44;17.60;;;8.38;;
68072;SDS011;54862;51.502;7.446;2023-03-01T05:06:11;13.65;;;7.18;;
68072;SDS011;54862;51.502;7.446;2023-03-01T05:08:37;15.93;;;8.35;;
68072;SDS011;54862;51.502;7.446;2023-03-01T05:11:04;16.10;;;7.70;;
68072;SDS011;54862;51.502;7.446;2023-03-01T05:13:30;13.55;;;7.45;;
68072;SDS011;54862;51.502;7.446;2023-03-01T05:15:58;13.95;;;7.50;;
68072;SDS011;54862;51.502;7.446;2023-03-01T05:18:24;13.73;;;6.93;;
68072;SDS011;54862;51.502;7.446;2023-03-01T05:20:51;15.13;;;7.05;;
68072;SDS011;54862;51.502;7.446;2023-03-01T05:23:17;15.43;;;7.32;;
68072;SDS011;54862;51.502;7.446;2023-03-01T05:25:43;14.77;;;8.02;;
68072;SDS011;54862;51.502;7.446;2023-03-01T05:28:10;16.08;;;7.53;;
68072;SDS011;54862;51.502;7.446;2023-03-01T05:30:37;17.15;;;7.75;;
68072;SDS011;54862;51.502;7.446;2023-03-01T05:33:07;15.63;;;7.70;;
68072;SDS011;54862;51.502;7.446;2023-03-01T05:35:38;13.98;;;7.13;;
68072;SDS011;54862;51.502;7.446;2023-03-01T05:38:06;14.50;;;8.07;;
68072;SDS011;54862;51.502;7.446;2023-03-01T05:40:32;13.50;;;7.30;;
68072;SDS011;54862;51.502;7.446;2023-03-01T05:42:58;19.10;;;8.40;;
68072;SDS011;54862;51.502;7.446;2023-03-01T05:45:25;15.57;;;7.53;;
68072;SDS011;54862;51.502;7.446;2023-03-01T05:47:51;14.18;;;7.45;;
68072;SDS011;54862;51.502;7.446;2023-03-01T05:50:19;18.33;;;8.48;;
68072;SDS011;54862;51.502;7.446;2023-03-01T05:52:49;12.98;;;7.50;;
68072;SDS011;54862;51.502;7.446;2023-03-01T05:55:16;16.67;;;7.72;;
68072;SDS011;54862;51.502;7.446;2023-03-01T05:57:43;14.50;;;8.00;;
68072;SDS011;54862;51.502;7.446;2023-03-01T06:00:09;14.25;;;7.78;;
68072;SDS011;54862;51.502;7.446;2023-03-01T06:02:35;14.27;;;7.75;;
68072;SDS011;54862;51.502;7.446;2023-03-01T06:05:02;14.18;;;8.10;;
68072;SDS011;54862;51.502;7.446;2023-03-01T06:07:28;16.02;;;8.85;;
68072;SDS011;54862;51.502;7.446;2023-03-01T06:09:54;16.45;;;8.23;;
68072;SDS011;54862;51.502;7.446;2023-03-01T06:12:20;18.98;;;8.15;;
68072;SDS011;54862;51.502;7.446;2023-03-01T06:14:46;15.63;;;8.63;;
68072;SDS011;54862;51.502;7.446;2023-03-01T06:17:13;20.27;;;8.15;;
68072;SDS011;54862;51.502;7.446;2023-03-01T06:19:39;19.70;;;8.93;;
68072;SDS011;54862;51.502;7.446;2023-03-01T06:22:05;14.98;;;8.38;;
68072;SDS011;54862;51.502;7.446;2023-03-01T06:24:31;16.42;;;8.35;;
68072;SDS011;54862;51.502;7.446;2023-03-01T06:26:57;17.08;;;9.32;;
68072;SDS011;54862;51.502;7.446;2023-03-01T06:29:23;14.73;;;8.65;;
68072;SDS011;54862;51.502;7.446;2023-03-01T06:31:49;17.02;;;8.75;;
68072;SDS011;54862;51.502;7.446;2023-03-01T06:34:14;18.50;;;8.55;;
68072;SDS011;54862;51.502;7.446;2023-03-01T06:36:41;18.38;;;8.35;;
68072;SDS011;54862;51.502;7.446;2023-03-01T06:39:07;16.80;;;8.85;;
68072;SDS011;54862;51.502;7.446;2023-03-01T06:41:33;16.00;;;8.40;;
68072;SDS011;54862;51.502;7.446;2023-03-01T06:43:59;17.30;;;9.93;;
68072;SDS011;54862;51.502;7.446;2023-03-01T06:46:25;16.98;;;8.57;;
68072;SDS011;54862;51.502;7.446;2023-03-01T06:48:51;17.63;;;8.38;;
68072;SDS011;54862;51.502;7.446;2023-03-01T06:51:17;17.20;;;9.43;;
68072;SDS011;54862;51.502;7.446;2023-03-01T06:53:45;15.95;;;8.70;;
68072;SDS011;54862;51.502;7.446;2023-03-01T06:56:11;17.02;;;8.10;;
68072;SDS011;54862;51.502;7.446;2023-03-01T06:58:37;16.30;;;9.48;;
68072;SDS011;54862;51.502;7.446;2023-03-01T07:01:06;16.48;;;9.48;;
68072;SDS011;54862;51.502;7.446;2023-03-01T07:03:32;16.67;;;8.85;;
68072;SDS011;54862;51.502;7.446;2023-03-01T07:05:58;17.63;;;9.05;;
68072;SDS011;54862;51.502;7.446;2023-03-01T07:08:24;19.95;;;8.82;;
68072;SDS011;54862;51.502;7.446;2023-03-01T07:10:59;16.15;;;8.85;;
68072;SDS011;54862;51.502;7.446;2023-03-01T07:13:27;18.05;;;9.50;;
68072;SDS011;54862;51.502;7.446;2023-03-01T07:15:53;18.88;;;9.38;;
68072;SDS011;54862;51.502;7.446;2023-03-01T07:18:19;16.92;;;9.32;;
68072;SDS011;54862;51.502;7.446;2023-03-01T07:20:45;19.58;;;10.10;;
68072;SDS011;54862;51.502;7.446;2023-03-01T07:23:11;17.90;;;9.48;;
68072;SDS011;54862;51.502;7.446;2023-03-01T07:25:37;22.92;;;9.00;;
68072;SDS011;54862;51.502;7.446;2023-03-01T07:28:03;15.55;;;9.27;;
68072;SDS011;54862;51.502;7.446;2023-03-01T07:30:29;19.08;;;9.73;;
68072;SDS011;54862;51.502;7.446;2023-03-01T07:32:55;16.63;;;8.63;;
68072;SDS011;54862;51.502;7.446;2023-03-01T07:35:22;18.20;;;8.55;;
68072;SDS011;54862;51.502;7.446;2023-03-01T07:37:49;18.88;;;9.40;;
68072;SDS011;54862;51.502;7.446;2023-03-01T07:40:15;21.05;;;10.05;;
68072;SDS011;54862;51.502;7.446;2023-03-01T07:42:41;19.55;;;9.32;;
68072;SDS011;54862;51.502;7.446;2023-03-01T07:45:07;19.23;;;9.43;;
68072;SDS011;54862;51.502;7.446;2023-03-01T07:47:33;19.80;;;9.10;;
68072;SDS011;54862;51.502;7.446;2023-03-01T07:49:59;17.35;;;8.90;;
68072;SDS011;54862;51.502;7.446;2023-03-01T07:52:26;21.85;;;9.27;;
68072;SDS011;54862;51.502;7.446;2023-03-01T07:54:52;17.58;;;9.60;;
68072;SDS011;54862;51.502;7.446;2023-03-01T07:57:18;20.33;;;9.93;;
68072;SDS011;54862;51.502;7.446;2023-03-01T07:59:44;20.58;;;10.02;;
68072;SDS011;54862;51.502;7.446;2023-03-01T08:02:10;20.42;;;9.65;;
68072;SDS011;54862;51.502;7.446;2023-03-01T08:04:36;18.52;;;8.98;;
68072;SDS011;54862;51.502;7.446;2023-03-01T08:07:04;16.75;;;8.82;;
68072;SDS011;54862;51.502;7.446;2023-03-01T08:09:31;18.33;;;9.07;;
68072;SDS011;54862;51.502;7.446;2023-03-01T08:11:57;17.40;;;8.57;;
68072;SDS011;54862;51.502;7.446;2023-03-01T08:14:24;18.25;;;8.75;;
68072;SDS011;54862;51.502;7.446;2023-03-01T08:16:50;18.27;;;9.00;;
68072;SDS011;54862;51.502;7.446;2023-03-01T08:19:16;17.27;;;9.23;;
68072;SDS011;54862;51.502;7.446;2023-03-01T08:21:42;17.25;;;7.95;;
68072;SDS011;54862;51.502;7.446;2023-03-01T08:24:09;20.58;;;8.80;;
68072;SDS011;54862;51.502;7.446;2023-03-01T08:26:38;18.48;;;8.77;;
68072;SDS011;54862;51.502;7.446;2023-03-01T08:29:04;15.23;;;8.43;;
68072;SDS011;54862;51.502;7.446;2023-03-01T08:31:35;15.57;;;8.48;;
68072;SDS011;54862;51.502;7.446;2023-03-01T08:34:02;16.75;;;8.48;;
68072;SDS011;54862;51.502;7.446;2023-03-01T08:36:33;16.50;;;8.25;;
68072;SDS011;54862;51.502;7.446;2023-03-01T08:39:00;18.10;;;9.45;;
68072;SDS011;54862;51.502;7.446;2023-03-01T08:41:26;17.77;;;7.97;;
68072;SDS011;54862;51.502;7.446;2023-03-01T08:43:52;18.38;;;8.40;;
68072;SDS011;54862;51.502;7.446;2023-03-01T08:46:23;15.10;;;8.13;;
68072;SDS011;54862;51.502;7.446;2023-03-01T08:48:49;16.23;;;7.65;;
68072;SDS011;54862;51.502;7.446;2023-03-01T08:51:16;15.25;;;7.55;;
68072;SDS011;54862;51.502;7.446;2023-03-01T08:53:42;14.43;;;7.93;;
68072;SDS011;54862;51.502;7.446;2023-03-01T08:56:09;17.15;;;8.15;;
68072;SDS011;54862;51.502;7.446;2023-03-01T08:58:35;14.68;;;7.50;;
68072;SDS011;54862;51.502;7.446;2023-03-01T09:01:06;14.63;;;7.05;;
68072;SDS011;54862;51.502;7.446;2023-03-01T09:03:32;15.32;;;7.97;;
68072;SDS011;54862;51.502;7.446;2023-03-01T09:06:02;15.55;;;7.75;;
68072;SDS011;54862;51.502;7.446;2023-03-01T09:08:28;14.45;;;7.55;;
68072;SDS011;54862;51.502;7.446;2023-03-01T09:10:55;14.10;;;7.85;;
68072;SDS011;54862;51.502;7.446;2023-03-01T09:13:21;13.68;;;7.03;;
68072;SDS011;54862;51.502;7.446;2023-03-01T09:15:49;17.65;;;7.30;;
68072;SDS011;54862;51.502;7.446;2023-03-01T09:18:16;15.23;;;7.10;;
68072;SDS011;54862;51.502;7.446;2023-03-01T09:20:42;13.43;;;6.60;;
68072;SDS011;54862;51.502;7.446;2023-03-01T09:23:08;13.93;;;6.60;;
68072;SDS011;54862;51.502;7.446;2023-03-01T09:25:34;12.80;;;7.07;;
68072;SDS011;54862;51.502;7.446;2023-03-01T09:28:00;14.45;;;6.55;;
68072;SDS011;54862;51.502;7.446;2023-03-01T09:30:26;12.63;;;6.20;;
68072;SDS011;54862;51.502;7.446;2023-03-01T09:32:52;14.27;;;6.35;;
68072;SDS011;54862;51.502;7.446;2023-03-01T09:35:18;13.73;;;7.10;;
68072;SDS011;54862;51.502;7.446;2023-03-01T09:37:46;14.68;;;7.05;;
68072;SDS011;54862;51.502;7.446;2023-03-01T09:40:13;14.45;;;6.82;;
68072;SDS011;54862;51.502;7.446;2023-03-01T09:42:45;14.48;;;6.93;;
68072;SDS011;54862;51.502;7.446;2023-03-01T09:45:14;12.38;;;6.20;;
68072;SDS011;54862;51.502;7.446;2023-03-01T09:50:12;12.77;;;5.47;;
68072;SDS011;54862;51.502;7.446;2023-03-01T09:52:46;14.43;;;6.63;;
68072;SDS011;54862;51.502;7.446;2023-03-01T09:56:00;13.05;;;6.20;;
68072;SDS011;54862;51.502;7.446;2023-03-01T09:58:01;10.48;;;5.10;;
68072;SDS011;54862;51.502;7.446;2023-03-01T10:00:32;16.25;;;6.00;;
68072;SDS011;54862;51.502;7.446;2023-03-01T10:03:23;12.55;;;5.88;;
68072;SDS011;54862;51.502;7.446;2023-03-01T10:10:52;13.80;;;6.20;;
68072;SDS011;54862;51.502;7.446;2023-03-01T10:13:23;11.45;;;6.00;;
68072;SDS011;54862;51.502;7.446;2023-03-01T10:15:53;13.45;;;6.05;;
68072;SDS011;54862;51.502;7.446;2023-03-01T10:18:27;13.45;;;5.85;;
68072;SDS011;54862;51.502;7.446;2023-03-01T10:20:58;11.15;;;5.68;;
68072;SDS011;54862;51.502;7.446;2023-03-01T10:23:26;11.82;;;5.80;;
68072;SDS011;54862;51.502;7.446;2023-03-01T10:31:24;12.77;;;6.65;;
68072;SDS011;54862;51.502;7.446;2023-03-01T10:33:53;12.57;;;5.75;;
68072;SDS011;54862;51.502;7.446;2023-03-01T10:36:20;11.88;;;5.50;;
68072;SDS011;54862;51.502;7.446;2023-03-01T10:38:53;11.70;;;5.82;;
68072;SDS011;54862;51.502;7.446;2023-03-01T10:41:23;11.32;;;6.10;;
68072;SDS011;54862;51.502;7.446;2023-03-01T10:43:51;11.75;;;5.10;;
68072;SDS011;54862;51.502;7.446;2023-03-01T10:46:22;12.93;;;5.57;;
68072;SDS011;54862;51.502;7.446;2023-03-01T10:49:04;10.75;;;6.18;;
68072;SDS011;54862;51.502;7.446;2023-03-01T10:51:31;12.02;;;6.45;;
68072;SDS011;54862;51.502;7.446;2023-03-01T10:53:57;14.30;;;5.75;;
68072;SDS011;54862;51.502;7.446;2023-03-01T10:56:23;13.10;;;6.40;;
68072;SDS011;54862;51.502;7.446;2023-03-01T10:59:00;12.10;;;6.18;;
68072;SDS011;54862;51.502;7.446;2023-03-01T11:01:27;13.20;;;6.05;;
68072;SDS011;54862;51.502;7.446;2023-03-01T11:06:32;14.82;;;6.35;;
68072;SDS011;54862;51.502;7.446;2023-03-01T11:09:13;11.88;;;6.15;;
68072;SDS011;54862;51.502;7.446;2023-03-01T11:11:40;13.45;;;5.57;;
68072;SDS011;54862;51.502;7.446;2023-03-01T11:14:07;13.30;;;5.82;;
68072;SDS011;54862;51.502;7.446;2023-03-01T11:16:38;15.10;;;7.35;;
68072;SDS011;54862;51.502;7.446;2023-03-01T11:21:34;13.02;;;6.93;;
68072;SDS011;54862;51.502;7.446;2023-03-01T11:24:03;13.65;;;6.05;;
68072;SDS011;54862;51.502;7.446;2023-03-01T11:26:30;12.10;;;6.10;;
68072;SDS011;54862;51.502;7.446;2023-03-01T11:28:58;11.93;;;6.05;;
68072;SDS011;54862;51.502;7.446;2023-03-01T11:31:26;14.48;;;6.82;;
68072;SDS011;54862;51.502;7.446;2023-03-01T11:33:57;13.27;;;6.22;;
68072;SDS011;54862;51.502;7.446;2023-03-01T11:38:51;11.68;;;5.88;;
68072;SDS011;54862;51.502;7.446;2023-03-01T11:41:23;12.63;;;6.63;;
68072;SDS011;54862;51.502;7.446;2023-03-01T11:43:52;13.98;;;6.20;;
68072;SDS011;54862;51.502;7.446;2023-03-01T11:46:33;12.55;;;5.93;;
68072;SDS011;54862;51.502;7.446;2023-03-01T11:54:37;11.65;;;6.05;;
68072;SDS011;54862;51.502;7.446;2023-03-01T11:57:20;14.27;;;7.10;;
68072;SDS011;54862;51.502;7.446;2023-03-01T12:02:43;16.02;;;6.22;;
68072;SDS011;54862;51.502;7.446;2023-03-01T12:08:01;12.30;;;6.30;;
68072;SDS011;54862;51.502;7.446;2023-03-01T12:10:30;11.63;;;5.68;;
68072;SDS011;54862;51.502;7.446;2023-03-01T12:36:29;14.68;;;6.63;;
68072;SDS011;54862;51.502;7.446;2023-03-01T12:41:36;13.55;;;6.50;;
68072;SDS011;54862;51.502;7.446;2023-03-01T12:44:10;13.15;;;5.90;;
68072;SDS011;54862;51.502;7.446;2023-03-01T12:49:12;12.52;;;5.63;;
68072;SDS011;54862;51.502;7.446;2023-03-01T12:51:39;12.85;;;5.55;;
68072;SDS011;54862;51.502;7.446;2023-03-01T12:54:14;12.68;;;6.25;;
68072;SDS011;54862;51.502;7.446;2023-03-01T12:56:40;10.40;;;5.78;;
68072;SDS011;54862;51.502;7.446;2023-03-01T12:59:21;15.20;;;6.15;;
68072;SDS011;54862;51.502;7.446;2023-03-01T13:09:57;11.55;;;5.80;;
68072;SDS011;54862;51.502;7.446;2023-03-01T13:17:57;14.27;;;6.20;;
68072;SDS011;54862;51.502;7.446;2023-03-01T13:20:25;13.68;;;6.60;;
68072;SDS011;54862;51.502;7.446;2023-03-01T13:23:03;13.95;;;6.40;;
68072;SDS011;54862;51.502;7.446;2023-03-01T13:25:30;13.05;;;6.00;;
68072;SDS011;54862;51.502;7.446;2023-03-01T13:30:41;11.45;;;5.70;;
68072;SDS011;54862;51.502;7.446;2023-03-01T13:35:51;12.45;;;6.25;;
68072;SDS011;54862;51.502;7.446;2023-03-01T13:38:36;11.82;;;6.03;;
68072;SDS011;54862;51.502;7.446;2023-03-01T13:41:03;13.15;;;5.85;;
68072;SDS011;54862;51.502;7.446;2023-03-01T13:43:36;12.20;;;5.47;;
68072;SDS011;54862;51.502;7.446;2023-03-01T13:46:21;13.35;;;7.10;;
68072;SDS011;54862;51.502;7.446;2023-03-01T13:48:52;11.88;;;5.25;;
68072;SDS011;54862;51.502;7.446;2023-03-01T13:51:25;12.23;;;6.07;;
68072;SDS011;54862;51.502;7.446;2023-03-01T13:53:51;12.82;;;6.00;;
68072;SDS011;54862;51.502;7.446;2023-03-01T13:58:49;11.40;;;5.57;;
68072;SDS011;54862;51.502;7.446;2023-03-01T14:01:24;13.70;;;5.20;;
68072;SDS011;54862;51.502;7.446;2023-03-01T14:03:50;10.18;;;5.00;;
68072;SDS011;54862;51.502;7.446;2023-03-01T14:06:17;11.85;;;5.35;;
68072;SDS011;54862;51.502;7.446;2023-03-01T14:08:45;10.88;;;5.38;;
68072;SDS011;54862;51.502;7.446;2023-03-01T14:16:44;15.23;;;6.00;;
68072;SDS011;54862;51.502;7.446;2023-03-01T14:21:34;10.02;;;4.80;;
68072;SDS011;54862;51.502;7.446;2023-03-01T14:24:01;11.35;;;5.20;;
68072;SDS011;54862;51.502;7.446;2023-03-01T14:26:27;10.07;;;4.85;;
68072;SDS011;54862;51.502;7.446;2023-03-01T14:28:53;12.35;;;6.00;;
68072;SDS011;54862;51.502;7.446;2023-03-01T14:31:31;10.85;;;5.47;;
68072;SDS011;54862;51.502;7.446;2023-03-01T14:33:57;14.15;;;5.72;;
68072;SDS011;54862;51.502;7.446;2023-03-01T14:36:28;11.23;;;5.57;;
68072;SDS011;54862;51.502;7.446;2023-03-01T14:38:54;10.70;;;5.63;;
68072;SDS011;54862;51.502;7.446;2023-03-01T14:41:21;11.27;;;5.32;;
68072;SDS011;54862;51.502;7.446;2023-03-01T14:46:33;12.73;;;5.22;;
68072;SDS011;54862;51.502;7.446;2023-03-01T14:49:04;12.82;;;5.50;;
68072;SDS011;54862;51.502;7.446;2023-03-01T14:51:30;10.25;;;4.85;;
68072;SDS011;54862;51.502;7.446;2023-03-01T14:53:56;12.18;;;5.97;;
68072;SDS011;54862;51.502;7.446;2023-03-01T14:56:22;11.02;;;4.95;;
68072;SDS011;54862;51.502;7.446;2023-03-01T14:58:51;12.50;;;5.20;;
68072;SDS011;54862;51.502;7.446;2023-03-01T15:01:17;11.68;;;5.22;;
68072;SDS011;54862;51.502;7.446;2023-03-01T15:03:47;11.60;;;5.13;;
68072;SDS011;54862;51.502;7.446;2023-03-01T15:06:17;11.13;;;5.20;;
68072;SDS011;54862;51.502;7.446;2023-03-01T15:08:51;11.80;;;5.68;;
68072;SDS011;54862;51.502;7.446;2023-03-01T15:11:22;10.18;;;5.07;;
68072;SDS011;54862;51.502;7.446;2023-03-01T15:13:49;9.52;;;4.90;;
68072;SDS011;54862;51.502;7.446;2023-03-01T15:16:22;11.90;;;5.30;;
68072;SDS011;54862;51.502;7.446;2023-03-01T15:18:53;11.90;;;5.45;;
68072;SDS011;54862;51.502;7.446;2023-03-01T15:21:24;11.63;;;5.55;;
68072;SDS011;54862;51.502;7.446;2023-03-01T15:23:56;12.13;;;5.00;;
68072;SDS011;54862;51.502;7.446;2023-03-01T15:26:34;10.35;;;4.72;;
68072;SDS011;54862;51.502;7.446;2023-03-01T15:29:00;10.43;;;4.78;;
68072;SDS011;54862;51.502;7.446;2023-03-01T15:31:28;10.73;;;4.78;;
68072;SDS011;54862;51.502;7.446;2023-03-01T15:34:37;9.80;;;5.22;;
68072;SDS011;54862;51.502;7.446;2023-03-01T15:36:45;10.80;;;4.68;;
68072;SDS011;54862;51.502;7.446;2023-03-01T15:41:49;11.70;;;5.28;;
68072;SDS011;54862;51.502;7.446;2023-03-01T15:44:17;13.18;;;5.53;;
68072;SDS011;54862;51.502;7.446;2023-03-01T15:46:47;11.57;;;5.25;;
68072;SDS011;54862;51.502;7.446;2023-03-01T15:49:27;12.02;;;5.70;;
68072;SDS011;54862;51.502;7.446;2023-03-01T15:51:56;10.73;;;5.07;;
68072;SDS011;54862;51.502;7.446;2023-03-01T15:54:24;11.40;;;6.00;;
68072;SDS011;54862;51.502;7.446;2023-03-01T15:56:50;13.93;;;5.35;;
68072;SDS011;54862;51.502;7.446;2023-03-01T15:59:16;11.05;;;5.30;;
68072;SDS011;54862;51.502;7.446;2023-03-01T16:01:43;10.63;;;4.70;;
68072;SDS011;54862;51.502;7.446;2023-03-01T16:04:10;9.15;;;4.65;;
68072;SDS011;54862;51.502;7.446;2023-03-01T16:06:41;10.20;;;4.75;;
68072;SDS011;54862;51.502;7.446;2023-03-01T16:09:06;11.05;;;4.90;;
68072;SDS011;54862;51.502;7.446;2023-03-01T16:11:32;10.32;;;5.20;;
68072;SDS011;54862;51.502;7.446;2023-03-01T16:14:01;10.50;;;4.43;;
68072;SDS011;54862;51.502;7.446;2023-03-01T16:16:27;9.25;;;4.60;;
68072;SDS011;54862;51.502;7.446;2023-03-01T16:18:54;12.65;;;5.40;;
68072;SDS011;54862;51.502;7.446;2023-03-01T16:21:21;10.80;;;5.00;;